Time;durP1;ratioP1;P1;durP2;ratioP2;P2;SDS_P1;SDS_P2;PMS_P1;PMS_P2;Temp;Humidity;BMP_temperature;BMP_pressure;BME280_temperature;BME280_humidity;BME280_pressure;Samples;Min_cycle;Max_cycle;Signal;HPM_P1;HPM_P2
2022/11/27 00:00:43;;;;;;;1999.90;999.90;;;6.10;99.90;;;;;;6762691;88;20718;-80
2022/11/27 00:10:44;;;;;;;1999.90;999.90;;;6.00;99.90;;;;;;6760478;88;20233;-80
2022/11/27 00:20:44;;;;;;;1999.90;999.90;;;5.90;99.90;;;;;;6759825;88;20212;-80
2022/11/27 00:30:45;;;;;;;1999.90;999.90;;;5.80;99.90;;;;;;6767430;88;20660;-80
2022/11/27 00:40:46;;;;;;;1999.90;999.90;;;5.80;99.90;;;;;;6765162;88;20690;-81
2022/11/27 00:50:47;;;;;;;1999.90;999.90;;;5.70;99.90;;;;;;6766914;88;20188;-80
2022/11/27 01:01:04;;;;;;;1999.90;999.90;;;5.70;99.90;;;;;;6767153;88;20212;-80
2022/11/27 01:11:04;;;;;;;1999.90;999.90;;;5.70;99.90;;;;;;6763057;88;20200;-81
2022/11/27 01:21:05;;;;;;;1999.90;999.90;;;5.60;99.90;;;;;;6747271;77;20234;-74
2022/11/27 01:31:12;;;;;;;1999.90;999.90;;;5.60;99.90;;;;;;6722464;88;20585;-73
2022/11/27 01:41:15;;;;;;;;;;;5.50;99.90;;;;;;6710369;88;20319;-75
2022/11/27 01:51:17;;;;;;;1999.90;999.90;;;5.40;99.90;;;;;;6712254;88;20519;-73
2022/11/27 02:01:17;;;;;;;1999.90;999.90;;;5.40;99.90;;;;;;6715304;88;20200;-74
2022/11/27 02:11:33;;;;;;;1999.90;999.90;;;5.40;99.90;;;;;;6718563;88;20689;-74
2022/11/27 02:21:48;;;;;;;1999.90;999.90;;;5.30;99.90;;;;;;6708698;88;20832;-75
2022/11/27 02:31:52;;;;;;;1999.90;999.90;;;5.30;99.90;;;;;;6707190;88;20313;-76
2022/11/27 02:42:09;;;;;;;1999.90;999.90;;;5.10;99.90;;;;;;6711736;88;20201;-75
2022/11/27 02:52:12;;;;;;;1999.90;999.90;;;5.10;99.90;;;;;;6713269;88;20339;-76
2022/11/27 03:02:19;;;;;;;1999.90;999.90;;;5.00;99.90;;;;;;6707199;88;20193;-76
2022/11/27 03:12:20;;;;;;;1999.90;999.90;;;4.90;99.90;;;;;;6708239;88;20344;-76
2022/11/27 03:22:20;;;;;;;1999.90;999.90;;;4.90;99.90;;;;;;6711653;88;20235;-75
2022/11/27 03:32:22;;;;;;;1999.90;999.90;;;4.80;99.90;;;;;;6714155;88;20211;-76
2022/11/27 03:42:50;;;;;;;1999.90;999.90;;;4.70;99.90;;;;;;6713884;88;20502;-75
2022/11/27 03:53:02;;;;;;;1999.90;999.90;;;4.70;99.90;;;;;;6711447;88;20597;-78
2022/11/27 04:03:03;;;;;;;1999.90;999.90;;;4.60;99.90;;;;;;6726787;88;20178;-75
2022/11/27 04:13:03;;;;;;;1999.90;999.90;;;4.70;99.90;;;;;;6709772;88;20210;-76
2022/11/27 04:23:04;;;;;;;1999.90;999.90;;;4.70;99.90;;;;;;6711276;88;20286;-74
2022/11/27 04:33:04;;;;;;;1999.90;999.90;;;4.70;99.90;;;;;;6721053;88;20218;-73
2022/11/27 04:43:05;;;;;;;1999.90;999.90;;;4.70;99.90;;;;;;6722772;88;20218;-73
2022/11/27 04:53:06;;;;;;;1999.90;999.90;;;4.70;99.90;;;;;;6715520;88;20236;-73
2022/11/27 05:03:06;;;;;;;1999.90;999.90;;;4.80;99.90;;;;;;6711779;88;21145;-73
2022/11/27 05:13:07;;;;;;;1999.90;999.90;;;4.80;99.90;;;;;;6711908;88;20185;-74
2022/11/27 05:23:07;;;;;;;1999.90;999.90;;;4.80;99.90;;;;;;6722181;88;20194;-74
2022/11/27 05:33:09;;;;;;;1999.90;999.90;;;4.80;99.90;;;;;;6712888;88;20194;-74
2022/11/27 05:43:09;;;;;;;1999.90;999.90;;;4.80;99.90;;;;;;6711925;88;20194;-74
2022/11/27 05:53:10;;;;;;;1999.90;999.90;;;4.80;99.90;;;;;;6711236;88;20222;-75
2022/11/27 06:03:10;;;;;;;1999.90;999.90;;;4.80;99.90;;;;;;6714442;88;20252;-74
2022/11/27 06:13:11;;;;;;;1999.90;999.90;;;4.90;99.90;;;;;;6713378;88;20194;-74
2022/11/27 06:23:11;;;;;;;1999.90;999.90;;;4.90;99.90;;;;;;6711793;88;20190;-74
2022/11/27 06:33:12;;;;;;;1999.90;999.90;;;5.00;99.90;;;;;;6713229;88;20178;-74
2022/11/27 06:43:12;;;;;;;1999.90;999.90;;;5.10;99.90;;;;;;6711706;88;20324;-74
2022/11/27 06:53:13;;;;;;;1999.90;999.90;;;5.20;99.90;;;;;;6715513;88;20186;-74
2022/11/27 07:03:13;;;;;;;1999.90;999.90;;;5.20;99.90;;;;;;6712286;88;20642;-74
2022/11/27 07:13:14;;;;;;;1999.90;999.90;;;5.30;99.90;;;;;;6729880;88;20231;-75
2022/11/27 07:23:55;;;;;;;1999.90;999.90;;;5.40;99.90;;;;;;6739805;77;20315;-75
2022/11/27 07:33:57;;;;;;;1999.90;999.90;;;5.40;99.90;;;;;;6722485;88;20631;-78
2022/11/27 07:43:57;;;;;;;1999.90;999.90;;;5.60;99.90;;;;;;6724682;88;20312;-77
2022/11/27 07:53:58;;;;;;;1999.90;999.90;;;5.60;99.90;;;;;;6718090;88;20243;-77
2022/11/27 08:03:59;;;;;;;1999.90;999.90;;;5.70;99.90;;;;;;6715631;88;20754;-78
2022/11/27 08:14:02;;;;;;;1999.90;999.90;;;5.80;99.90;;;;;;6726972;88;20211;-76
2022/11/27 08:24:04;;;;;;;1999.90;999.90;;;5.90;99.90;;;;;;6718957;88;20186;-77
2022/11/27 08:34:05;;;;;;;1999.90;999.90;;;5.90;99.90;;;;;;6720325;88;20799;-77
2022/11/27 08:44:05;;;;;;;1999.90;999.90;;;6.10;99.90;;;;;;6733343;88;20234;-79
2022/11/27 08:54:06;;;;;;;1999.90;999.90;;;6.20;99.90;;;;;;6732936;88;20183;-79
2022/11/27 09:04:06;;;;;;;1999.90;999.90;;;6.30;99.90;;;;;;6738276;88;20190;-79
2022/11/27 09:14:08;;;;;;;1999.90;999.90;;;6.60;99.90;;;;;;6725903;88;20194;-78
2022/11/27 09:24:08;;;;;;;1999.90;999.90;;;6.80;99.90;;;;;;6730588;88;20201;-77
2022/11/27 09:34:09;;;;;;;1999.90;999.90;;;6.80;99.90;;;;;;6731397;88;20707;-77
2022/11/27 09:44:19;;;;;;;1999.90;999.90;;;6.90;99.90;;;;;;6722476;88;20185;-76
2022/11/27 09:54:25;;;;;;;1999.90;999.90;;;6.90;99.90;;;;;;6733565;88;20251;-77
2022/11/27 10:04:26;;;;;;;1999.90;999.90;;;7.00;99.90;;;;;;6727484;88;20173;-76
2022/11/27 10:14:36;;;;;;;1999.90;999.90;;;7.40;99.90;;;;;;6744087;88;20190;-77
2022/11/27 10:25:12;;;;;;;1999.90;999.90;;;7.60;99.90;;;;;;6723340;88;20300;-79
2022/11/27 10:35:16;;;;;;;1999.90;999.90;;;7.90;99.90;;;;;;6737074;88;20219;-81
2022/11/27 10:45:17;;;;;;;1999.90;999.90;;;7.90;99.90;;;;;;6725520;88;20226;-78
2022/11/27 10:55:31;;;;;;;1999.90;999.90;;;7.90;99.90;;;;;;6727470;88;20182;-79
2022/11/27 11:05:33;;;;;;;1999.90;999.90;;;8.20;99.90;;;;;;6735110;88;20221;-78
2022/11/27 11:15:50;;;;;;;1999.90;999.90;;;8.40;99.90;;;;;;6742064;88;20171;-79
2022/11/27 11:25:54;;;;;;;1999.90;999.90;;;8.30;99.90;;;;;;6722820;88;20677;-77
2022/11/27 11:36:06;;;;;;;1999.90;999.90;;;8.40;99.90;;;;;;6726327;88;20634;-78
2022/11/27 11:46:21;;;;;;;1999.90;999.90;;;8.70;99.90;;;;;;6721712;88;20673;-77
2022/11/27 11:56:36;;;;;;;1999.90;999.90;;;8.70;99.90;;;;;;6711865;88;20691;-77
2022/11/27 12:06:57;;;;;;;1999.90;999.90;;;8.50;99.90;;;;;;6709403;88;20187;-80
2022/11/27 12:17:19;;;;;;;1999.90;999.90;;;8.60;99.90;;;;;;6742812;88;20204;-79
2022/11/27 12:27:41;;;;;;;1999.90;999.90;;;8.60;99.90;;;;;;6725741;88;20606;-79
2022/11/27 12:37:41;;;;;;;1999.90;999.90;;;8.60;99.90;;;;;;6716776;88;20174;-80
2022/11/27 12:47:46;;;;;;;1999.90;999.90;;;8.70;99.90;;;;;;6729016;88;20215;-79
2022/11/27 12:58:03;;;;;;;1999.90;999.90;;;8.70;99.90;;;;;;6727677;88;20203;-78
2022/11/27 13:08:22;;;;;;;1999.90;999.90;;;8.60;99.90;;;;;;6715022;88;20194;-79
2022/11/27 13:18:35;;;;;;;1999.90;999.90;;;8.60;99.90;;;;;;6720850;88;20194;-79
2022/11/27 13:28:50;;;;;;;1999.90;999.90;;;8.60;99.90;;;;;;6735496;88;20189;-78
2022/11/27 13:38:56;;;;;;;1999.90;999.90;;;8.60;99.90;;;;;;6718497;88;20590;-76
2022/11/27 13:49:02;;;;;;;;;;;8.70;99.90;;;;;;6709894;88;20289;-78
2022/11/27 13:59:20;;;;;;;1999.90;999.90;;;8.60;99.90;;;;;;6717481;88;20060;-78
2022/11/27 14:09:35;;;;;;;1999.90;999.90;;;8.50;99.90;;;;;;6706731;88;20659;-77
2022/11/27 14:19:43;;;;;;;1999.90;999.90;;;8.40;99.90;;;;;;6730336;88;20211;-80
2022/11/27 14:29:43;;;;;;;1999.90;999.90;;;8.30;99.90;;;;;;6744654;88;20917;-80
2022/11/27 14:39:44;;;;;;;1999.90;999.90;;;8.00;99.90;;;;;;6728345;88;20209;-80
2022/11/27 14:49:45;;;;;;;1999.90;999.90;;;8.00;99.90;;;;;;6707725;88;20644;-79
2022/11/27 14:59:45;;;;;;;1999.90;999.90;;;8.00;99.90;;;;;;6721615;88;20182;-80
2022/11/27 15:09:52;;;;;;;1999.90;999.90;;;7.90;99.90;;;;;;6732548;88;20186;-81
2022/11/27 15:19:55;;;;;;;1999.90;999.90;;;7.70;99.90;;;;;;6724075;88;20218;-79
2022/11/27 15:30:10;;;;;;;1999.90;999.90;;;7.60;99.90;;;;;;6732566;88;20192;-79
2022/11/27 15:40:27;;;;;;;1999.90;999.90;;;7.50;99.90;;;;;;6729218;88;20715;-79
2022/11/27 15:50:29;;;;;;;1999.90;999.90;;;7.30;99.90;;;;;;6716199;88;20173;-78
2022/11/27 16:00:30;;;;;;;1999.90;999.90;;;7.20;99.90;;;;;;6717069;88;20193;-79
2022/11/27 16:10:30;;;;;;;1999.90;999.90;;;7.10;99.90;;;;;;6711111;88;20209;-79
2022/11/27 16:20:31;;;;;;;1999.90;999.90;;;7.00;99.90;;;;;;6707862;88;20990;-79
2022/11/27 16:30:31;;;;;;;1999.90;999.90;;;7.00;99.90;;;;;;6711832;88;20241;-79
2022/11/27 16:40:33;;;;;;;1999.90;999.90;;;6.90;99.90;;;;;;6712185;88;20308;-79
2022/11/27 16:50:34;;;;;;;1999.90;999.90;;;6.80;99.90;;;;;;6712295;88;20211;-78
2022/11/27 17:00:34;;;;;;;1999.90;999.90;;;6.80;99.90;;;;;;6717127;88;20201;-80
2022/11/27 17:10:35;;;;;;;1999.90;999.90;;;6.70;99.90;;;;;;6711443;88;20236;-77
2022/11/27 17:20:36;;;;;;;1999.90;999.90;;;6.80;99.90;;;;;;6712662;88;20207;-75
2022/11/27 17:30:37;;;;;;;1999.90;999.90;;;6.70;99.90;;;;;;6711946;88;20202;-75
2022/11/27 17:40:37;;;;;;;1999.90;999.90;;;6.70;99.90;;;;;;6717481;88;20178;-76
2022/11/27 17:50:38;;;;;;;1999.90;999.90;;;6.60;99.90;;;;;;6722957;88;20204;-76
2022/11/27 18:00:39;;;;;;;1999.90;999.90;;;6.60;99.90;;;;;;6730779;88;20196;-75
2022/11/27 18:10:39;;;;;;;1999.90;999.90;;;6.60;99.90;;;;;;6718672;88;20664;-75
2022/11/27 18:20:40;;;;;;;1999.90;999.90;;;6.60;99.90;;;;;;6715774;88;20279;-74
2022/11/27 18:30:41;;;;;;;1999.90;999.90;;;6.50;99.90;;;;;;6719227;88;20190;-76
2022/11/27 18:40:44;;;;;;;1999.90;999.90;;;6.40;99.90;;;;;;6716853;88;20182;-75
2022/11/27 18:50:45;;;;;;;1999.90;999.90;;;6.40;99.90;;;;;;6709784;88;20182;-75
2022/11/27 19:00:45;;;;;;;1999.90;999.90;;;6.40;99.90;;;;;;6715101;88;20271;-75
2022/11/27 19:10:46;;;;;;;1999.90;999.90;;;6.40;99.90;;;;;;6719740;88;20224;-75
2022/11/27 19:20:47;;;;;;;1999.90;999.90;;;6.50;99.90;;;;;;6719306;88;20226;-75
2022/11/27 19:41:49;;;;;;;1999.90;999.90;;;6.50;99.90;;;;;;6734160;88;20235;-82
2022/11/27 19:51:50;;;;;;;1999.90;999.90;;;6.60;99.90;;;;;;6729602;88;20162;-83
2022/11/27 20:01:50;;;;;;;1999.90;999.90;;;6.70;99.90;;;;;;6710824;88;20577;-78
2022/11/27 20:11:51;;;;;;;1999.90;999.90;;;6.70;99.90;;;;;;6697829;88;20186;-81
2022/11/27 20:21:51;;;;;;;1999.90;999.90;;;6.80;99.90;;;;;;6707347;88;20208;-82
2022/11/27 20:31:52;;;;;;;1999.90;999.90;;;6.80;99.90;;;;;;6714007;88;20301;-82
2022/11/27 20:41:53;;;;;;;1999.90;999.90;;;7.00;99.90;;;;;;6701212;88;20198;-80
2022/11/27 20:51:54;;;;;;;1999.90;999.90;;;7.00;99.90;;;;;;6697805;88;20203;-79
2022/11/27 21:01:55;;;;;;;1999.90;999.90;;;7.00;99.90;;;;;;6710806;88;20878;-81
2022/11/27 21:11:56;;;;;;;1999.90;999.90;;;7.10;99.90;;;;;;6715484;88;20155;-83
2022/11/27 21:21:56;;;;;;;1999.90;999.90;;;7.10;99.90;;;;;;6715940;88;20159;-87
2022/11/27 21:53:03;;;;;;;1999.90;999.90;;;7.40;99.90;;;;;;6770472;88;20172;-83
2022/11/27 22:03:04;;;;;;;1999.90;999.90;;;7.30;99.90;;;;;;6766970;87;20193;-86
2022/11/27 22:13:05;;;;;;;1999.90;999.90;;;7.40;99.90;;;;;;6750040;88;20197;-83
2022/11/27 22:23:06;;;;;;;1999.90;999.90;;;7.40;99.90;;;;;;6749689;88;20247;-82
2022/11/27 22:33:08;;;;;;;1999.90;999.90;;;7.40;99.90;;;;;;6732362;88;20154;-83
2022/11/27 22:43:08;;;;;;;1999.90;999.90;;;7.40;99.90;;;;;;6728505;88;20211;-83
2022/11/27 22:53:09;;;;;;;1999.90;999.90;;;7.40;99.90;;;;;;6728551;88;20259;-83
2022/11/27 23:03:10;;;;;;;1999.90;999.90;;;7.40;99.90;;;;;;6731981;88;21085;-84
2022/11/27 23:23:13;;;;;;;1999.90;999.90;;;7.60;99.90;;;;;;6729318;88;20229;-84
2022/11/27 23:33:14;;;;;;;1999.90;999.90;;;7.60;99.90;;;;;;6732082;88;20277;-82
2022/11/27 23:53:18;;;;;;;1999.90;999.90;;;6.80;99.90;;;;;;6736284;88;20178;-86
